In Rescue
 
Open Full Screen Window  High Contrast Mode
January 20, 2022 8:14 AM CST
Weather Information
Wind Direction
  ---
Wind Speed
  00 kt (0 mph)
Wind Gust
  00 kt (0 mph)
Altimeter
30.64 in
Visibility
10 SM
Temperature
-32° C
-25° F
Dewpoint
-35° C
-30° F
Humidity
75%
1hr Rain Fall
00.00 in.
24hr Rain Fall
00.00 in.
Sky Condition
Clear
VFR

METAR K14Y 201414Z AUTO 00000KT 10SM CLR M32/M35 A3064 RMK AO2

FAA Disclaimer: The data displayed is for advisory purposes only and is not to be used for flight planning or operations.